createdAt,value
2022-10-17T00:01:04.511Z,17.60
2022-10-17T00:03:49.924Z,17.50
2022-10-17T00:06:29.730Z,17.40
2022-10-17T00:09:13.616Z,17.40
2022-10-17T00:11:58.137Z,17.40
2022-10-17T00:14:41.481Z,17.40
2022-10-17T00:17:32.668Z,17.40
2022-10-17T00:20:45.269Z,17.50
2022-10-17T00:23:25.348Z,17.70
2022-10-17T00:26:21.564Z,17.80
2022-10-17T00:29:04.120Z,17.80
2022-10-17T00:31:40.819Z,18.20
2022-10-17T00:34:44.910Z,18.00
2022-10-17T00:38:12.813Z,18.10
2022-10-17T00:40:50.500Z,18.00
2022-10-17T00:43:44.311Z,17.80
2022-10-17T00:49:57.847Z,17.50
2022-10-17T00:52:50.204Z,17.10
2022-10-17T00:55:57.618Z,16.80
2022-10-17T00:58:57.203Z,16.50
2022-10-17T01:01:51.861Z,16.10
2022-10-17T01:04:37.574Z,15.80
2022-10-17T01:07:41.618Z,15.40
2022-10-17T01:17:36.088Z,14.70
2022-10-17T01:21:48.443Z,14.50
2022-10-17T01:25:06.788Z,14.40
2022-10-17T01:28:27.629Z,14.50
2022-10-17T01:32:19.614Z,14.40
2022-10-17T01:38:56.093Z,14.40
2022-10-17T01:42:00.942Z,14.30
2022-10-17T01:45:12.326Z,14.30
2022-10-17T01:51:17.795Z,14.20
2022-10-17T01:54:06.485Z,14.00
2022-10-17T01:57:19.126Z,13.80
2022-10-17T02:00:11.043Z,13.60
2022-10-17T02:02:51.825Z,13.50
2022-10-17T02:05:30.794Z,13.40
2022-10-17T02:08:14.154Z,13.40
2022-10-17T02:10:51.971Z,13.40
2022-10-17T02:13:58.256Z,13.30
2022-10-17T02:16:39.576Z,13.40
2022-10-17T02:19:37.379Z,13.50
2022-10-17T02:22:20.489Z,13.50
2022-10-17T02:25:04.057Z,13.40
2022-10-17T02:27:50.513Z,13.40
2022-10-17T02:30:31.746Z,13.30
2022-10-17T02:33:09.306Z,13.30
2022-10-17T02:35:50.781Z,13.20
2022-10-17T02:38:38.557Z,13.20
2022-10-17T02:41:21.319Z,13.10
2022-10-17T02:44:02.365Z,13.00
2022-10-17T02:46:43.017Z,12.90
2022-10-17T02:49:29.213Z,12.80
2022-10-17T02:52:14.468Z,12.70
2022-10-17T02:54:49.478Z,12.70
2022-10-17T02:57:36.865Z,12.70
2022-10-17T03:00:16.081Z,12.60
2022-10-17T03:02:52.912Z,12.50
2022-10-17T03:05:33.227Z,12.40
2022-10-17T03:08:05.724Z,12.20
2022-10-17T03:10:36.117Z,12.20
2022-10-17T03:13:14.215Z,12.20
2022-10-17T03:15:52.819Z,12.20
2022-10-17T03:18:28.767Z,12.30
2022-10-17T03:21:03.789Z,12.30
2022-10-17T03:23:42.541Z,12.30
2022-10-17T03:26:20.133Z,12.30
2022-10-17T03:28:56.604Z,12.30
2022-10-17T03:31:29.694Z,12.30
2022-10-17T03:34:01.546Z,12.20
2022-10-17T03:36:38.639Z,12.30
2022-10-17T03:39:08.520Z,12.30
2022-10-17T03:41:38.559Z,12.30
2022-10-17T03:44:10.188Z,12.30
2022-10-17T03:46:48.020Z,12.30
2022-10-17T03:49:18.151Z,12.30
2022-10-17T03:51:49.310Z,12.20
2022-10-17T03:54:17.920Z,12.40
2022-10-17T03:59:23.563Z,12.40
2022-10-17T04:02:11.665Z,12.40
2022-10-17T04:04:41.501Z,12.30
2022-10-17T04:07:10.031Z,12.30
2022-10-17T04:09:39.980Z,12.20
2022-10-17T04:12:08.675Z,12.10
2022-10-17T04:14:47.413Z,12.10
2022-10-17T04:17:17.581Z,12.20
2022-10-17T04:19:50.288Z,12.30
2022-10-17T04:22:18.800Z,12.30
2022-10-17T04:24:47.372Z,12.40
2022-10-17T04:27:22.549Z,12.40
2022-10-17T04:30:00.843Z,12.40
2022-10-17T04:32:54.122Z,12.40
2022-10-17T04:35:28.603Z,12.30
2022-10-17T04:38:00.048Z,12.40
2022-10-17T04:40:30.635Z,12.40
2022-10-17T04:43:00.248Z,12.40
2022-10-17T04:45:32.369Z,12.40
2022-10-17T04:59:40.916Z,12.10
2022-10-17T05:02:12.196Z,12.20
2022-10-17T05:04:43.209Z,12.20
2022-10-17T05:10:50.230Z,12.10
2022-10-17T05:14:01.876Z,12.20
2022-10-17T05:20:15.716Z,12.30
2022-10-17T05:26:38.543Z,12.20
2022-10-17T05:34:17.246Z,12.20
2022-10-17T05:38:02.026Z,12.20
2022-10-17T05:40:42.080Z,12.10
2022-10-17T05:44:09.071Z,12.10
2022-10-17T06:14:08.478Z,12.50
2022-10-17T06:23:47.743Z,12.90
2022-10-17T07:40:22.591Z,14.30
2022-10-17T07:47:08.280Z,14.50
2022-10-17T07:49:42.729Z,14.90
2022-10-17T07:52:25.722Z,14.90
2022-10-17T07:55:05.884Z,15.00
2022-10-17T07:58:42.468Z,15.10
2022-10-17T08:01:22.966Z,15.20
2022-10-17T08:03:53.542Z,15.40
2022-10-17T08:06:21.930Z,15.50
2022-10-17T08:09:03.183Z,15.50
2022-10-17T08:11:50.455Z,15.60
2022-10-17T08:14:32.550Z,15.70
2022-10-17T08:17:38.442Z,15.80
2022-10-17T08:23:55.615Z,16.00
2022-10-17T08:27:16.008Z,16.20
2022-10-17T08:30:00.357Z,16.40
2022-10-17T08:36:49.178Z,16.70
2022-10-17T08:40:20.171Z,16.90
2022-10-17T08:43:48.160Z,17.10
2022-10-17T08:54:23.074Z,17.80
2022-10-17T09:01:37.349Z,18.00
2022-10-17T09:08:19.597Z,18.50
2022-10-17T09:11:07.730Z,18.60
2022-10-17T09:13:54.515Z,18.70
2022-10-17T09:16:53.959Z,18.80
2022-10-17T09:20:10.114Z,18.90
2022-10-17T09:23:09.153Z,19.10
2022-10-17T09:26:25.594Z,19.20
2022-10-17T09:30:13.000Z,19.30
2022-10-17T09:34:06.830Z,19.40
2022-10-17T09:37:35.648Z,19.70
2022-10-17T09:44:07.425Z,20.00
2022-10-17T09:46:50.351Z,20.20
2022-10-17T09:50:05.013Z,20.40
2022-10-17T09:53:02.859Z,20.40
2022-10-17T09:56:10.303Z,20.40
2022-10-17T10:21:37.753Z,21.40
2022-10-17T10:24:14.653Z,21.50
2022-10-17T10:26:49.036Z,21.70
2022-10-17T10:29:31.212Z,21.90
2022-10-17T10:32:10.242Z,22.10
2022-10-17T10:34:50.811Z,22.30
2022-10-17T10:37:27.164Z,22.50
2022-10-17T10:44:06.602Z,22.60
2022-10-17T10:46:34.735Z,22.50
2022-10-17T10:53:08.995Z,22.50
2022-10-17T10:55:45.959Z,22.60
2022-10-17T10:58:27.750Z,22.50
2022-10-17T11:01:04.120Z,22.40
2022-10-17T11:11:43.761Z,22.60
2022-10-17T11:14:24.028Z,22.60
2022-10-17T11:32:22.560Z,22.60
2022-10-17T11:54:09.716Z,23.20
2022-10-17T11:57:13.887Z,23.30
2022-10-17T12:00:09.320Z,23.20
2022-10-17T12:02:43.985Z,23.20
2022-10-17T12:05:23.321Z,23.20
2022-10-17T12:08:00.656Z,23.10
2022-10-17T12:10:40.644Z,23.10
2022-10-17T12:13:46.471Z,23.00
2022-10-17T12:16:51.884Z,23.00
2022-10-17T12:19:52.003Z,23.10
2022-10-17T12:22:34.968Z,23.00
2022-10-17T12:25:04.426Z,23.00
2022-10-17T12:31:54.696Z,23.00
2022-10-17T12:38:50.962Z,22.90
2022-10-17T12:42:04.135Z,22.90
2022-10-17T12:45:18.786Z,22.90
2022-10-17T12:52:32.092Z,22.90
2022-10-17T12:56:13.246Z,23.00
2022-10-17T13:03:07.231Z,23.00
2022-10-17T13:06:09.850Z,22.90
2022-10-17T13:12:04.618Z,23.00
2022-10-17T13:14:36.843Z,23.00
2022-10-17T13:17:09.935Z,23.00
2022-10-17T13:19:50.120Z,23.10
2022-10-17T13:22:24.886Z,23.10
2022-10-17T13:25:16.062Z,23.10
2022-10-17T13:27:46.954Z,23.20
2022-10-17T13:30:30.870Z,23.20
2022-10-17T13:47:48.997Z,23.20
2022-10-17T13:52:36.658Z,23.20
2022-10-17T13:56:27.410Z,23.10
2022-10-17T14:14:27.993Z,22.90
2022-10-17T16:31:02.341Z,17.60
2022-10-17T16:33:31.589Z,17.40
2022-10-17T16:44:19.852Z,17.10
2022-10-17T16:54:06.032Z,16.90
2022-10-17T16:57:21.441Z,16.80
2022-10-17T17:03:49.945Z,16.80
2022-10-17T17:11:39.904Z,16.80
2022-10-17T17:14:36.674Z,16.70
2022-10-17T17:18:21.477Z,16.60
2022-10-17T17:21:47.343Z,16.60
2022-10-17T17:24:57.865Z,16.50
2022-10-17T17:31:08.849Z,16.50
2022-10-17T17:36:33.977Z,16.60
2022-10-17T17:39:07.492Z,16.50
2022-10-17T17:41:42.727Z,16.70
2022-10-17T17:44:17.903Z,16.60
2022-10-17T17:46:51.242Z,16.60
2022-10-17T17:49:19.604Z,16.60
2022-10-17T17:51:58.658Z,16.50
2022-10-17T17:54:30.176Z,16.50
2022-10-17T17:56:58.491Z,16.50
2022-10-17T17:59:27.979Z,16.40
2022-10-17T18:01:59.512Z,16.40
2022-10-17T18:04:34.498Z,16.40
2022-10-17T18:07:44.804Z,16.40
2022-10-17T18:11:08.358Z,16.40
2022-10-17T18:14:08.450Z,16.40
2022-10-17T18:17:01.552Z,16.60
2022-10-17T18:19:59.283Z,16.50
2022-10-17T18:23:00.514Z,16.40
2022-10-17T18:25:45.634Z,16.40
2022-10-17T18:28:35.799Z,16.40
2022-10-17T18:31:32.770Z,16.30
2022-10-17T18:34:17.646Z,16.20
2022-10-17T18:37:04.133Z,16.10
2022-10-17T18:39:50.438Z,16.10
2022-10-17T18:42:25.680Z,16.00
2022-10-17T18:44:54.435Z,16.10
2022-10-17T18:47:33.551Z,16.10
2022-10-17T18:50:07.828Z,16.00
2022-10-17T18:52:55.247Z,16.00
2022-10-17T18:55:40.222Z,15.90
2022-10-17T18:58:28.929Z,15.80
2022-10-17T19:01:09.889Z,15.80
2022-10-17T19:04:06.258Z,15.80
2022-10-17T19:06:44.017Z,15.70
2022-10-17T19:09:20.384Z,15.70
2022-10-17T19:12:11.413Z,15.60
2022-10-17T19:14:57.290Z,15.50
2022-10-17T19:17:40.317Z,15.30
2022-10-17T19:20:12.879Z,15.30
2022-10-17T19:22:41.894Z,15.40
2022-10-17T19:25:13.221Z,15.40
2022-10-17T19:27:45.059Z,15.40
2022-10-17T19:30:17.410Z,15.30
2022-10-17T19:33:38.766Z,15.30
2022-10-17T19:36:33.953Z,15.30
2022-10-17T19:39:11.645Z,15.40
2022-10-17T19:42:06.852Z,15.40
2022-10-17T19:44:41.380Z,15.50
2022-10-17T19:47:35.291Z,15.50
2022-10-17T19:50:04.913Z,15.60
2022-10-17T19:52:36.700Z,15.60
2022-10-17T19:55:05.346Z,15.50
2022-10-17T19:57:37.516Z,15.50
2022-10-17T20:00:40.956Z,15.50
2022-10-17T20:03:18.276Z,15.50
2022-10-17T20:06:05.618Z,15.40
2022-10-17T20:08:48.766Z,15.40
2022-10-17T20:11:41.077Z,15.30
2022-10-17T20:14:23.659Z,15.30
2022-10-17T20:17:10.172Z,15.30
2022-10-17T20:20:17.052Z,15.20
2022-10-17T20:24:48.711Z,15.20
2022-10-17T20:27:33.239Z,15.20
2022-10-17T20:30:20.921Z,15.00
2022-10-17T20:33:32.998Z,14.90
2022-10-17T20:40:22.645Z,15.00
2022-10-17T20:43:41.738Z,14.90
2022-10-17T20:57:41.971Z,14.80
2022-10-17T21:03:49.408Z,14.80
2022-10-17T21:15:00.860Z,14.60
2022-10-17T21:25:51.939Z,14.40
2022-10-17T21:40:30.409Z,14.20
2022-10-17T21:43:01.450Z,14.10
2022-10-17T21:46:30.458Z,14.00
2022-10-17T21:49:40.276Z,14.00
2022-10-17T21:53:40.918Z,13.90
2022-10-17T21:56:23.968Z,14.10
2022-10-17T21:59:41.871Z,14.10
2022-10-17T22:06:42.375Z,14.00
2022-10-17T22:09:40.623Z,14.00
2022-10-17T22:13:00.950Z,13.80
2022-10-17T22:28:52.264Z,13.80
2022-10-17T22:31:58.706Z,13.70
2022-10-17T22:35:35.839Z,13.60
2022-10-17T22:38:30.979Z,13.50
2022-10-17T22:41:27.828Z,13.60
2022-10-17T22:51:46.622Z,13.70
2022-10-17T23:07:02.802Z,14.00
2022-10-17T23:10:15.323Z,13.90
2022-10-17T23:28:31.089Z,13.80
2022-10-17T23:31:46.568Z,13.80
2022-10-17T23:43:27.040Z,14.00
